createdAt,value
2018-07-14T00:02:25.567Z,6.67
2018-07-14T00:04:54.476Z,6.90
2018-07-14T00:07:23.644Z,6.30
2018-07-14T00:09:52.564Z,6.40
2018-07-14T00:12:21.500Z,6.60
2018-07-14T00:14:50.412Z,6.87
2018-07-14T00:17:19.295Z,6.60
2018-07-14T00:19:48.212Z,7.20
2018-07-14T00:22:17.235Z,6.50
2018-07-14T00:24:46.143Z,6.13
2018-07-14T00:27:15.222Z,6.23
2018-07-14T00:29:44.156Z,6.30
2018-07-14T00:32:13.192Z,6.60
2018-07-14T00:34:42.133Z,6.37
2018-07-14T00:37:11.025Z,6.30
2018-07-14T00:39:39.936Z,7.00
2018-07-14T00:42:08.831Z,6.37
2018-07-14T00:44:37.921Z,6.93
2018-07-14T00:47:06.814Z,6.70
2018-07-14T00:49:35.723Z,6.20
2018-07-14T00:52:04.757Z,5.97
2018-07-14T00:54:33.655Z,6.33
2018-07-14T00:57:02.559Z,6.87
2018-07-14T00:59:31.454Z,6.90
2018-07-14T01:02:00.422Z,6.97
2018-07-14T01:04:29.316Z,6.77
2018-07-14T01:06:58.208Z,6.20
2018-07-14T01:09:27.087Z,6.47
2018-07-14T01:11:55.981Z,7.03
2018-07-14T01:14:24.908Z,7.07
2018-07-14T01:16:53.783Z,6.77
2018-07-14T01:19:22.913Z,6.60
2018-07-14T01:21:51.822Z,6.70
2018-07-14T01:24:20.734Z,7.50
2018-07-14T01:26:49.628Z,6.93
2018-07-14T01:29:18.529Z,6.73
2018-07-14T01:31:47.414Z,6.87
2018-07-14T01:34:16.305Z,7.07
2018-07-14T01:36:45.220Z,7.57
2018-07-14T01:39:14.161Z,7.70
2018-07-14T01:41:43.061Z,7.37
2018-07-14T01:44:11.994Z,7.63
2018-07-14T01:46:40.889Z,7.33
2018-07-14T01:49:09.812Z,7.57
2018-07-14T01:51:38.707Z,7.23
2018-07-14T01:54:07.972Z,7.93
2018-07-14T01:56:36.937Z,7.73
2018-07-14T01:59:05.990Z,7.60
2018-07-14T02:01:34.893Z,7.60
2018-07-14T02:04:03.786Z,8.10
2018-07-14T02:06:32.704Z,7.93
2018-07-14T02:09:01.615Z,8.20
2018-07-14T02:11:30.524Z,8.40
2018-07-14T02:13:59.426Z,8.03
2018-07-14T02:16:28.333Z,8.47
2018-07-14T02:18:57.249Z,8.17
2018-07-14T02:21:26.166Z,8.10
2018-07-14T02:23:55.584Z,7.53
2018-07-14T02:26:24.499Z,8.43
2018-07-14T02:28:53.409Z,8.60
2018-07-14T02:31:22.313Z,8.00
2018-07-14T02:33:51.208Z,8.00
2018-07-14T02:36:20.113Z,8.07
2018-07-14T02:38:49.058Z,8.23
2018-07-14T02:41:17.961Z,8.13
2018-07-14T02:43:47.073Z,8.30
2018-07-14T02:46:15.996Z,8.50
2018-07-14T02:48:44.872Z,8.90
2018-07-14T02:51:13.792Z,7.70
2018-07-14T02:53:42.964Z,8.53
2018-07-14T02:56:11.850Z,8.50
2018-07-14T02:58:40.775Z,8.23
2018-07-14T03:01:09.701Z,9.13
2018-07-14T03:03:38.640Z,9.40
2018-07-14T03:06:07.538Z,8.97
2018-07-14T03:08:36.564Z,9.73
2018-07-14T03:11:05.474Z,9.40
2018-07-14T03:13:34.394Z,9.70
2018-07-14T03:16:03.308Z,9.40
2018-07-14T03:18:32.227Z,10.17
2018-07-14T03:21:01.311Z,9.00
2018-07-14T03:23:30.198Z,10.40
2018-07-14T03:25:59.128Z,9.47
2018-07-14T03:28:28.060Z,9.37
2018-07-14T03:30:56.963Z,10.10
2018-07-14T03:33:25.866Z,10.60
2018-07-14T03:35:54.761Z,9.97
2018-07-14T03:38:23.666Z,10.07
2018-07-14T03:40:52.601Z,10.10
2018-07-14T03:43:21.479Z,10.87
2018-07-14T03:45:50.475Z,10.77
2018-07-14T03:48:19.410Z,10.33
2018-07-14T03:50:51.575Z,10.73
2018-07-14T03:53:20.476Z,11.73
2018-07-14T03:55:49.406Z,10.53
2018-07-14T03:58:18.325Z,10.90
2018-07-14T04:00:47.244Z,11.17
2018-07-14T04:03:16.378Z,12.10
2018-07-14T04:05:45.389Z,12.33
2018-07-14T04:08:14.560Z,12.53
2018-07-14T04:10:43.453Z,12.50
2018-07-14T04:13:12.370Z,12.10
2018-07-14T04:15:41.273Z,12.30
2018-07-14T04:18:10.167Z,12.53
2018-07-14T04:20:39.081Z,13.07
2018-07-14T04:23:07.985Z,13.13
2018-07-14T04:25:36.901Z,13.13
2018-07-14T04:28:05.855Z,12.50
2018-07-14T04:30:34.774Z,12.80
2018-07-14T04:33:03.681Z,13.37
2018-07-14T04:35:32.576Z,13.77
2018-07-14T04:38:01.481Z,12.63
2018-07-14T04:40:30.389Z,12.97
2018-07-14T04:42:59.371Z,13.43
2018-07-14T04:45:28.294Z,12.80
2018-07-14T04:47:57.215Z,13.17
2018-07-14T04:50:26.153Z,13.83
2018-07-14T04:52:55.072Z,13.70
2018-07-14T04:55:23.993Z,14.10
2018-07-14T04:57:52.903Z,13.93
2018-07-14T05:00:25.471Z,14.17
2018-07-14T05:02:54.384Z,13.70
2018-07-14T05:05:23.285Z,13.80
2018-07-14T05:07:52.255Z,14.37
2018-07-14T05:10:22.131Z,15.03
2018-07-14T05:12:51.170Z,14.67
2018-07-14T05:15:20.205Z,14.63
2018-07-14T05:17:49.237Z,14.27
2018-07-14T05:20:18.160Z,14.20
2018-07-14T05:22:47.079Z,14.80
2018-07-14T05:25:15.989Z,14.87
2018-07-14T05:27:44.926Z,14.63
2018-07-14T05:30:14.200Z,15.67
2018-07-14T05:32:43.507Z,15.27
2018-07-14T05:35:12.441Z,15.33
2018-07-14T05:37:41.354Z,15.40
2018-07-14T05:40:10.254Z,16.13
2018-07-14T05:42:39.228Z,15.70
2018-07-14T05:45:08.134Z,15.43
2018-07-14T05:47:37.056Z,15.30
2018-07-14T05:50:06.202Z,19.77
2018-07-14T05:52:35.333Z,17.13
2018-07-14T05:55:04.269Z,16.90
2018-07-14T05:57:33.229Z,15.27
2018-07-14T06:00:02.143Z,15.70
2018-07-14T06:02:31.082Z,16.53
2018-07-14T06:04:59.981Z,15.50
2018-07-14T06:07:29.017Z,16.13
2018-07-14T06:09:57.936Z,16.27
2018-07-14T06:12:26.957Z,17.50
2018-07-14T06:14:55.861Z,16.63
2018-07-14T06:17:24.925Z,15.70
2018-07-14T06:19:53.793Z,17.30
2018-07-14T06:22:22.724Z,17.53
2018-07-14T06:24:54.668Z,15.97
2018-07-14T06:27:23.569Z,16.17
2018-07-14T06:29:52.456Z,16.10
2018-07-14T06:32:21.360Z,16.43
2018-07-14T06:34:50.274Z,18.20
2018-07-14T06:37:19.190Z,17.23
2018-07-14T06:39:48.070Z,16.53
2018-07-14T06:42:16.986Z,16.10
2018-07-14T06:44:45.957Z,16.70
2018-07-14T06:47:14.860Z,16.23
2018-07-14T06:49:43.862Z,17.10
2018-07-14T06:52:12.937Z,17.33
2018-07-14T06:54:41.879Z,16.80
2018-07-14T06:57:10.787Z,18.03
2018-07-14T06:59:39.837Z,18.53
2018-07-14T07:02:08.750Z,17.60
2018-07-14T07:04:37.665Z,18.27
2018-07-14T07:07:06.571Z,16.80
2018-07-14T07:09:35.474Z,16.90
2018-07-14T07:12:04.442Z,18.63
2018-07-14T07:14:33.359Z,18.60
2018-07-14T07:17:02.312Z,17.30
2018-07-14T07:19:31.233Z,17.20
2018-07-14T07:22:00.146Z,18.83
2018-07-14T07:24:29.100Z,18.73
2018-07-14T07:26:58.071Z,18.67
2018-07-14T07:29:27.161Z,18.50
2018-07-14T07:31:56.059Z,20.67
2018-07-14T07:34:24.978Z,19.47
2018-07-14T07:36:53.906Z,19.13
2018-07-14T07:39:22.993Z,19.77
2018-07-14T07:41:51.929Z,17.53
2018-07-14T07:44:20.870Z,16.53
2018-07-14T07:46:49.821Z,18.73
2018-07-14T07:49:18.722Z,16.17
2018-07-14T07:51:47.631Z,16.47
2018-07-14T07:54:16.612Z,15.20
2018-07-14T07:56:48.759Z,15.57
2018-07-14T07:59:17.859Z,15.30
2018-07-14T08:01:46.736Z,17.70
2018-07-14T08:04:15.643Z,16.70
2018-07-14T08:06:44.549Z,14.90
2018-07-14T08:09:13.471Z,16.93
2018-07-14T08:11:42.373Z,16.80
2018-07-14T08:14:11.640Z,15.23
2018-07-14T08:16:40.536Z,16.37
2018-07-14T08:19:09.475Z,15.50
2018-07-14T08:21:38.375Z,15.50
2018-07-14T08:24:07.331Z,14.73
2018-07-14T08:26:36.473Z,13.83
2018-07-14T08:29:05.671Z,15.47
2018-07-14T08:31:34.612Z,13.70
2018-07-14T08:34:03.548Z,16.40
2018-07-14T08:36:32.449Z,14.63
2018-07-14T08:39:01.441Z,17.03
2018-07-14T08:41:30.371Z,15.63
2018-07-14T08:43:59.584Z,16.77
2018-07-14T08:46:32.409Z,15.67
2018-07-14T08:49:01.369Z,15.53
2018-07-14T08:51:30.387Z,14.67
2018-07-14T08:53:59.293Z,16.17
2018-07-14T08:56:28.190Z,13.20
2018-07-14T08:58:57.127Z,12.63
2018-07-14T09:01:26.032Z,13.33
2018-07-14T09:03:54.962Z,12.00
2018-07-14T09:06:24.205Z,12.60
2018-07-14T09:08:53.120Z,12.10
2018-07-14T09:11:22.045Z,12.40
2018-07-14T09:13:51.019Z,10.97
2018-07-14T09:16:19.952Z,13.57
2018-07-14T09:18:48.858Z,12.70
2018-07-14T09:21:17.807Z,13.47
2018-07-14T09:23:46.702Z,13.70
2018-07-14T09:26:15.607Z,11.27
2018-07-14T09:28:44.559Z,12.20
2018-07-14T09:31:13.477Z,13.03
2018-07-14T09:33:42.441Z,12.30
2018-07-14T09:36:11.404Z,11.67
2018-07-14T09:38:40.390Z,11.33
2018-07-14T09:41:09.354Z,10.37
2018-07-14T09:43:38.344Z,11.70
2018-07-14T09:46:07.300Z,11.27
2018-07-14T09:48:36.200Z,12.00
2018-07-14T09:51:05.121Z,10.67
2018-07-14T09:53:34.124Z,11.10
2018-07-14T09:56:06.690Z,11.57
2018-07-14T09:58:35.619Z,8.83
2018-07-14T10:01:07.436Z,10.40
2018-07-14T10:03:36.712Z,11.10
2018-07-14T10:06:05.676Z,10.30
2018-07-14T10:08:34.569Z,9.90
2018-07-14T10:11:03.523Z,9.97
2018-07-14T10:13:32.476Z,8.30
2018-07-14T10:16:01.409Z,10.53
2018-07-14T10:18:30.335Z,9.73
2018-07-14T10:20:59.282Z,9.53
2018-07-14T10:23:28.204Z,8.93
2018-07-14T10:25:57.136Z,8.50
2018-07-14T10:28:26.050Z,8.93
2018-07-14T10:30:54.996Z,10.50
2018-07-14T10:33:23.927Z,9.03
2018-07-14T10:35:52.858Z,10.23
2018-07-14T10:38:21.827Z,9.93
2018-07-14T10:40:50.993Z,8.40
2018-07-14T10:43:20.407Z,10.07
2018-07-14T10:45:49.344Z,8.70
2018-07-14T10:48:22.177Z,8.30
2018-07-14T10:50:51.062Z,8.60
2018-07-14T10:53:19.967Z,8.70
2018-07-14T10:55:48.930Z,8.87
2018-07-14T10:58:17.926Z,8.83
2018-07-14T11:00:46.786Z,8.50
2018-07-14T11:03:15.716Z,7.70
2018-07-14T11:05:44.622Z,8.60
2018-07-14T11:08:13.532Z,7.80
2018-07-14T11:10:42.491Z,9.83
2018-07-14T11:13:15.267Z,9.87
2018-07-14T11:15:44.221Z,8.20
2018-07-14T11:18:13.169Z,9.17
2018-07-14T11:20:42.150Z,8.57
2018-07-14T11:23:11.139Z,7.17
2018-07-14T11:25:41.051Z,7.20
2018-07-14T11:28:10.945Z,8.70
2018-07-14T11:30:39.916Z,8.13
2018-07-14T11:33:08.999Z,7.50
2018-07-14T11:35:37.913Z,7.80
2018-07-14T11:38:06.863Z,10.33
2018-07-14T11:40:35.854Z,10.40
2018-07-14T11:43:04.840Z,9.97
2018-07-14T11:45:33.908Z,8.93
2018-07-14T11:48:02.815Z,7.80
2018-07-14T11:50:34.921Z,10.27
2018-07-14T11:53:03.871Z,8.97
2018-07-14T11:55:32.801Z,8.40
2018-07-14T11:58:01.721Z,8.73
2018-07-14T12:00:33.651Z,8.63
2018-07-14T12:03:02.917Z,8.63
2018-07-14T12:05:32.071Z,7.47
2018-07-14T12:08:01.093Z,8.70
2018-07-14T12:10:29.981Z,6.93
2018-07-14T12:12:58.904Z,6.63
2018-07-14T12:15:27.804Z,7.90
2018-07-14T12:17:56.740Z,8.90
2018-07-14T12:20:25.647Z,8.30
2018-07-14T12:22:54.593Z,7.97
2018-07-14T12:25:23.519Z,9.73
2018-07-14T12:27:52.413Z,9.30
2018-07-14T12:30:21.446Z,8.20
2018-07-14T12:32:50.317Z,7.40
2018-07-14T12:35:19.231Z,7.60
2018-07-14T12:37:48.140Z,7.10
2018-07-14T12:40:17.209Z,6.70
2018-07-14T12:42:46.117Z,6.37
2018-07-14T12:45:15.025Z,5.83
2018-07-14T12:47:43.937Z,7.40
2018-07-14T12:50:12.862Z,6.00
2018-07-14T12:52:41.749Z,7.10
2018-07-14T12:55:11.665Z,8.40
2018-07-14T12:57:40.629Z,8.00
2018-07-14T13:00:09.696Z,8.53
2018-07-14T13:02:38.847Z,7.20
2018-07-14T13:05:08.103Z,6.10
2018-07-14T13:07:37.029Z,5.70
2018-07-14T13:10:06.850Z,5.87
2018-07-14T13:12:35.869Z,5.10
2018-07-14T13:15:05.052Z,4.93
2018-07-14T13:17:33.984Z,5.70
2018-07-14T13:20:03.349Z,5.67
2018-07-14T13:22:32.531Z,6.03
2018-07-14T13:25:01.669Z,5.50
2018-07-14T13:27:30.608Z,5.27
2018-07-14T13:29:59.727Z,5.23
2018-07-14T13:32:28.633Z,5.23
2018-07-14T13:34:57.801Z,5.50
2018-07-14T13:37:26.730Z,4.60
2018-07-14T13:39:55.914Z,4.83
2018-07-14T13:42:24.848Z,4.97
2018-07-14T13:44:53.755Z,5.17
2018-07-14T13:47:22.677Z,4.87
2018-07-14T13:49:51.607Z,4.80
2018-07-14T13:52:20.518Z,4.50
2018-07-14T13:54:49.411Z,4.30
2018-07-14T13:57:18.437Z,4.30
2018-07-14T13:59:47.279Z,4.57
2018-07-14T14:02:16.204Z,4.43
2018-07-14T14:04:45.107Z,4.10
2018-07-14T14:07:14.030Z,4.10
2018-07-14T14:09:42.957Z,4.23
2018-07-14T14:12:11.902Z,4.00
2018-07-14T14:14:44.436Z,5.10
2018-07-14T14:17:13.327Z,4.00
2018-07-14T14:19:45.699Z,4.53
2018-07-14T14:22:18.025Z,4.00
2018-07-14T14:24:46.961Z,4.07
2018-07-14T14:27:15.866Z,4.00
2018-07-14T14:29:44.776Z,3.37
2018-07-14T14:32:13.841Z,3.40
2018-07-14T14:34:42.731Z,3.80
2018-07-14T14:37:11.635Z,3.73
2018-07-14T14:39:40.530Z,3.53
2018-07-14T14:42:09.438Z,3.40
2018-07-14T14:44:38.383Z,3.23
2018-07-14T14:47:07.277Z,4.20
2018-07-14T14:49:36.180Z,3.63
2018-07-14T14:52:05.405Z,3.60
2018-07-14T14:54:34.682Z,3.63
2018-07-14T14:57:07.571Z,4.30
2018-07-14T14:59:36.749Z,3.87
2018-07-14T15:02:05.697Z,3.63
2018-07-14T15:04:34.565Z,3.70
2018-07-14T15:07:03.483Z,3.70
2018-07-14T15:09:32.377Z,4.20
2018-07-14T15:12:01.301Z,3.93
2018-07-14T15:14:30.234Z,4.20
2018-07-14T15:16:59.316Z,3.60
2018-07-14T15:19:28.424Z,3.80
2018-07-14T15:21:57.695Z,4.13
2018-07-14T15:24:26.641Z,3.93
2018-07-14T15:26:55.548Z,4.10
2018-07-14T15:29:24.482Z,4.07
2018-07-14T15:31:53.409Z,4.00
2018-07-14T15:34:22.364Z,3.87
2018-07-14T15:36:51.264Z,3.90
2018-07-14T15:39:20.294Z,3.90
2018-07-14T15:41:49.207Z,3.83
2018-07-14T15:44:18.134Z,3.93
2018-07-14T15:46:47.578Z,4.03
2018-07-14T15:49:17.663Z,4.07
2018-07-14T15:51:46.593Z,4.20
2018-07-14T15:54:15.543Z,4.00
2018-07-14T15:56:44.469Z,4.30
2018-07-14T15:59:13.438Z,4.20
2018-07-14T16:01:42.392Z,3.87
2018-07-14T16:04:11.311Z,3.97
2018-07-14T16:06:40.238Z,4.10
2018-07-14T16:09:09.191Z,4.40
2018-07-14T16:11:41.764Z,4.07
2018-07-14T16:14:10.709Z,3.73
2018-07-14T16:16:39.636Z,3.17
2018-07-14T16:19:08.634Z,3.90
2018-07-14T16:21:37.705Z,3.87
2018-07-14T16:24:06.647Z,4.00
2018-07-14T16:26:35.553Z,3.90
2018-07-14T16:29:04.474Z,3.40
2018-07-14T16:31:33.513Z,3.80
2018-07-14T16:34:02.418Z,3.43
2018-07-14T16:36:31.357Z,3.60
2018-07-14T16:39:00.266Z,3.23
2018-07-14T16:41:29.179Z,3.40
2018-07-14T16:43:58.094Z,3.30
2018-07-14T16:46:27.027Z,3.07
2018-07-14T16:48:55.955Z,3.20
2018-07-14T16:51:25.143Z,2.60
2018-07-14T16:53:54.123Z,3.00
2018-07-14T16:56:23.007Z,3.30
2018-07-14T16:58:52.469Z,3.30
2018-07-14T17:01:21.418Z,3.00
2018-07-14T17:03:50.296Z,3.30
2018-07-14T17:06:19.227Z,3.33
2018-07-14T17:08:48.123Z,2.90
2018-07-14T17:11:17.289Z,2.73
2018-07-14T17:13:46.269Z,2.80
2018-07-14T17:16:15.149Z,3.10
2018-07-14T17:18:44.072Z,2.80
2018-07-14T17:21:12.984Z,3.10
2018-07-14T17:23:41.878Z,3.20
2018-07-14T17:26:10.808Z,3.07
2018-07-14T17:28:39.731Z,2.80
2018-07-14T17:31:09.865Z,3.07
2018-07-14T17:33:38.926Z,3.90
2018-07-14T17:36:07.863Z,7.13
2018-07-14T17:38:36.770Z,4.70
2018-07-14T17:41:05.695Z,3.70
2018-07-14T17:43:34.596Z,3.50
2018-07-14T17:46:03.475Z,3.20
2018-07-14T17:48:32.415Z,3.10
2018-07-14T17:51:01.315Z,3.50
2018-07-14T17:53:30.201Z,2.67
2018-07-14T17:55:59.075Z,3.10
2018-07-14T17:58:27.989Z,3.10
2018-07-14T18:00:56.874Z,3.27
2018-07-14T18:03:25.766Z,3.30
2018-07-14T18:05:54.683Z,3.17
2018-07-14T18:08:23.723Z,2.50
2018-07-14T18:10:53.076Z,2.87
2018-07-14T18:13:21.985Z,2.60
2018-07-14T18:15:50.889Z,3.33
2018-07-14T18:18:19.770Z,3.13
2018-07-14T18:20:48.717Z,2.90
2018-07-14T18:23:17.631Z,2.83
2018-07-14T18:25:46.538Z,2.90
2018-07-14T18:28:15.445Z,2.90
2018-07-14T18:30:44.816Z,3.20
2018-07-14T18:33:13.711Z,3.03
2018-07-14T18:35:42.615Z,3.17
2018-07-14T18:38:11.535Z,3.10
2018-07-14T18:40:40.437Z,2.80
2018-07-14T18:43:09.509Z,2.87
2018-07-14T18:45:38.548Z,3.13
2018-07-14T18:48:07.490Z,3.00
2018-07-14T18:50:36.442Z,2.50
2018-07-14T18:53:05.485Z,2.40
2018-07-14T18:55:34.355Z,2.70
2018-07-14T18:58:03.231Z,2.50
2018-07-14T19:00:32.137Z,2.50
2018-07-14T19:03:01.281Z,2.67
2018-07-14T19:05:30.147Z,2.30
2018-07-14T19:07:59.244Z,2.00
2018-07-14T19:10:28.209Z,2.23
2018-07-14T19:12:57.112Z,2.20
2018-07-14T19:15:26.017Z,2.30
2018-07-14T19:17:54.960Z,1.93
2018-07-14T19:20:23.872Z,2.30
2018-07-14T19:22:56.391Z,2.20
2018-07-14T19:25:25.276Z,2.00
2018-07-14T19:27:54.186Z,2.10
2018-07-14T19:30:23.147Z,2.30
2018-07-14T19:32:53.020Z,2.20
2018-07-14T19:35:21.938Z,2.20
2018-07-14T19:37:50.845Z,2.10
2018-07-14T19:40:19.794Z,2.30
2018-07-14T19:42:48.747Z,2.17
2018-07-14T19:45:17.636Z,2.10
2018-07-14T19:47:46.568Z,2.23
2018-07-14T19:50:15.472Z,2.17
2018-07-14T19:52:44.395Z,2.33
2018-07-14T19:55:13.315Z,2.20
2018-07-14T19:57:42.280Z,2.47
2018-07-14T20:00:11.268Z,2.13
2018-07-14T20:02:40.181Z,2.10
2018-07-14T20:05:09.119Z,2.00
2018-07-14T20:07:38.010Z,2.30
2018-07-14T20:10:06.942Z,2.00
2018-07-14T20:12:35.961Z,2.30
2018-07-14T20:15:04.895Z,2.40
2018-07-14T20:17:33.817Z,2.00
2018-07-14T20:20:02.696Z,2.40
2018-07-14T20:22:31.621Z,2.43
2018-07-14T20:25:00.529Z,2.50
2018-07-14T20:27:29.413Z,2.40
2018-07-14T20:29:58.420Z,2.53
2018-07-14T20:32:27.329Z,2.63
2018-07-14T20:34:57.184Z,2.43
2018-07-14T20:37:26.330Z,2.33
2018-07-14T20:39:55.278Z,2.70
2018-07-14T20:42:24.280Z,2.60
2018-07-14T20:44:53.204Z,2.63
2018-07-14T20:47:22.160Z,3.10
2018-07-14T20:49:51.160Z,3.20
2018-07-14T20:52:20.477Z,2.77
2018-07-14T20:54:49.330Z,3.20
2018-07-14T20:57:18.264Z,2.43
2018-07-14T20:59:47.382Z,2.57
2018-07-14T21:02:16.329Z,3.07
2018-07-14T21:04:45.502Z,2.80
2018-07-14T21:07:14.731Z,2.73
2018-07-14T21:09:43.657Z,2.50
2018-07-14T21:12:12.586Z,2.60
2018-07-14T21:14:42.019Z,2.60
2018-07-14T21:17:12.022Z,2.20
2018-07-14T21:19:40.933Z,2.50
2018-07-14T21:22:10.005Z,2.50
2018-07-14T21:24:38.967Z,2.50
2018-07-14T21:27:07.934Z,2.00
2018-07-14T21:29:36.856Z,2.90
2018-07-14T21:32:05.869Z,3.07
2018-07-14T21:34:34.793Z,3.23
2018-07-14T21:37:03.737Z,3.13
2018-07-14T21:39:32.647Z,2.77
2018-07-14T21:42:04.800Z,3.67
2018-07-14T21:44:33.721Z,4.00
2018-07-14T21:47:02.693Z,3.10
2018-07-14T21:49:31.615Z,2.50
2018-07-14T21:52:00.520Z,2.47
2018-07-14T21:54:29.457Z,2.60
2018-07-14T21:56:58.525Z,2.50
2018-07-14T21:59:27.441Z,2.23
2018-07-14T22:01:56.374Z,2.53
2018-07-14T22:04:25.449Z,2.63
2018-07-14T22:06:54.386Z,2.30
2018-07-14T22:09:23.325Z,2.77
2018-07-14T22:13:16.694Z,2.57
2018-07-14T22:15:45.600Z,2.33
2018-07-14T22:18:14.532Z,2.43
2018-07-14T22:20:43.668Z,2.60
2018-07-14T22:23:12.595Z,2.50
2018-07-14T22:25:41.462Z,2.57
2018-07-14T22:28:10.376Z,2.80
2018-07-14T22:30:39.446Z,2.33
2018-07-14T22:33:08.328Z,2.80
2018-07-14T22:35:37.248Z,2.50
2018-07-14T22:38:06.262Z,2.40
2018-07-14T22:40:35.133Z,2.33
2018-07-14T22:43:04.166Z,2.43
2018-07-14T22:45:33.123Z,2.73
2018-07-14T22:48:02.267Z,2.70
2018-07-14T22:50:31.164Z,2.47
2018-07-14T22:53:00.109Z,2.30
2018-07-14T22:55:28.994Z,2.40
2018-07-14T22:57:57.871Z,2.23
2018-07-14T23:00:26.789Z,2.30
2018-07-14T23:02:55.904Z,2.40
2018-07-14T23:05:24.893Z,2.37
2018-07-14T23:07:53.967Z,2.47
2018-07-14T23:10:22.858Z,2.40
2018-07-14T23:12:51.791Z,2.43
2018-07-14T23:15:20.821Z,2.40
2018-07-14T23:17:49.740Z,2.60
2018-07-14T23:20:18.823Z,2.50
2018-07-14T23:22:47.793Z,2.60
2018-07-14T23:25:16.722Z,2.67
2018-07-14T23:27:45.742Z,2.37
2018-07-14T23:30:14.650Z,2.30
2018-07-14T23:32:43.577Z,2.43
2018-07-14T23:35:12.451Z,2.40
2018-07-14T23:37:41.486Z,2.23
2018-07-14T23:40:10.881Z,2.10
2018-07-14T23:42:39.965Z,2.40
2018-07-14T23:45:08.975Z,2.40
2018-07-14T23:47:37.857Z,2.50
2018-07-14T23:50:06.813Z,3.00
2018-07-14T23:52:39.306Z,2.50
2018-07-14T23:55:08.312Z,2.47
2018-07-14T23:57:37.137Z,2.90
